createdAt,value
2018-01-10T00:01:08.184Z,4.30
2018-01-10T00:03:36.350Z,4.30
2018-01-10T00:06:04.464Z,4.30
2018-01-10T00:08:32.634Z,4.40
2018-01-10T00:11:00.761Z,4.30
2018-01-10T00:13:28.948Z,4.40
2018-01-10T00:15:57.078Z,4.40
2018-01-10T00:18:25.224Z,4.50
2018-01-10T00:20:53.376Z,4.60
2018-01-10T00:23:21.528Z,4.70
2018-01-10T00:25:49.671Z,4.70
2018-01-10T00:28:17.817Z,4.80
2018-01-10T00:30:45.942Z,4.80
2018-01-10T00:33:14.854Z,4.90
2018-01-10T00:35:42.984Z,4.90
2018-01-10T00:38:11.135Z,4.90
2018-01-10T00:40:39.266Z,4.80
2018-01-10T00:43:07.422Z,4.90
2018-01-10T00:45:36.302Z,5.00
2018-01-10T00:48:05.424Z,4.90
2018-01-10T00:50:33.551Z,4.90
2018-01-10T00:53:02.050Z,4.90
2018-01-10T00:55:30.339Z,4.80
2018-01-10T00:57:59.256Z,4.80
2018-01-10T01:00:28.188Z,4.80
2018-01-10T01:02:56.354Z,4.80
2018-01-10T01:05:24.489Z,4.80
2018-01-10T01:07:52.642Z,4.70
2018-01-10T01:10:21.538Z,4.80
2018-01-10T01:12:50.446Z,4.90
2018-01-10T01:15:18.579Z,4.80
2018-01-10T01:17:46.738Z,4.90
2018-01-10T01:20:14.872Z,4.90
2018-01-10T01:22:43.025Z,4.90
2018-01-10T01:25:11.919Z,5.10
2018-01-10T01:27:40.106Z,5.10
2018-01-10T01:30:08.237Z,5.30
2018-01-10T01:32:36.390Z,5.40
2018-01-10T01:35:04.643Z,5.40
2018-01-10T01:37:32.799Z,5.30
2018-01-10T01:40:00.978Z,5.30
2018-01-10T01:42:29.297Z,5.30
2018-01-10T01:44:57.418Z,5.30
2018-01-10T01:47:25.574Z,5.20
2018-01-10T01:49:54.451Z,5.10
2018-01-10T01:52:22.600Z,5.10
2018-01-10T01:54:50.728Z,5.10
2018-01-10T01:57:18.869Z,5.00
2018-01-10T01:59:47.008Z,4.90
2018-01-10T02:02:15.122Z,4.80
2018-01-10T02:04:44.031Z,4.80
2018-01-10T02:07:12.912Z,4.60
2018-01-10T02:09:41.823Z,4.60
2018-01-10T02:12:09.929Z,4.60
2018-01-10T02:14:38.086Z,4.40
2018-01-10T02:17:06.198Z,4.40
2018-01-10T02:19:34.343Z,4.40
2018-01-10T02:22:02.861Z,4.40
2018-01-10T02:24:31.067Z,4.70
2018-01-10T02:26:59.178Z,4.90
2018-01-10T02:29:27.314Z,4.90
2018-01-10T02:31:55.432Z,5.10
2018-01-10T02:34:23.570Z,5.10
2018-01-10T02:36:51.692Z,5.10
2018-01-10T02:39:19.981Z,5.20
2018-01-10T02:41:48.111Z,5.20
2018-01-10T02:44:16.253Z,5.30
2018-01-10T02:46:44.371Z,5.20
2018-01-10T02:49:12.508Z,5.10
2018-01-10T02:51:40.636Z,5.10
2018-01-10T02:54:08.755Z,5.20
2018-01-10T02:56:36.929Z,5.30
2018-01-10T02:59:05.043Z,5.30
2018-01-10T03:01:33.166Z,5.30
2018-01-10T03:04:01.304Z,5.40
2018-01-10T03:06:29.407Z,5.30
2018-01-10T03:08:57.665Z,5.30
2018-01-10T03:11:26.549Z,5.30
2018-01-10T03:13:54.683Z,5.30
2018-01-10T03:16:22.827Z,5.40
2018-01-10T03:18:50.968Z,5.40
2018-01-10T03:21:19.102Z,5.30
2018-01-10T03:23:47.248Z,5.20
2018-01-10T03:26:15.363Z,5.50
2018-01-10T03:28:43.495Z,5.50
2018-01-10T03:31:11.612Z,5.50
2018-01-10T03:33:39.752Z,5.50
2018-01-10T03:36:07.868Z,5.50
2018-01-10T03:38:36.003Z,5.60
2018-01-10T03:41:04.123Z,5.60
2018-01-10T03:43:32.262Z,5.50
2018-01-10T03:46:00.384Z,5.50
2018-01-10T03:48:29.280Z,5.50
2018-01-10T03:50:58.160Z,5.50
2018-01-10T03:53:27.063Z,5.50
2018-01-10T03:55:55.968Z,5.40
2018-01-10T03:58:24.107Z,5.40
2018-01-10T04:00:52.219Z,5.30
2018-01-10T04:03:20.350Z,5.20
2018-01-10T04:05:48.467Z,5.30
2018-01-10T04:08:16.604Z,5.30
2018-01-10T04:10:45.504Z,5.20
2018-01-10T04:13:14.413Z,5.20
2018-01-10T04:15:42.523Z,5.20
2018-01-10T04:18:10.664Z,5.10
2018-01-10T04:20:38.803Z,5.10
2018-01-10T04:23:06.927Z,5.10
2018-01-10T04:25:35.076Z,5.00
2018-01-10T04:28:03.187Z,4.90
2018-01-10T04:30:31.323Z,4.80
2018-01-10T04:32:59.435Z,4.80
2018-01-10T04:35:27.576Z,4.70
2018-01-10T04:37:55.696Z,4.70
2018-01-10T04:40:23.822Z,4.50
2018-01-10T04:42:52.034Z,4.50
2018-01-10T04:45:20.168Z,4.50
2018-01-10T04:47:48.303Z,4.30
2018-01-10T04:50:16.460Z,4.30
2018-01-10T04:52:44.583Z,4.20
2018-01-10T04:55:12.719Z,4.20
2018-01-10T04:57:40.831Z,4.30
2018-01-10T05:00:08.972Z,4.10
2018-01-10T05:02:38.897Z,4.20
2018-01-10T05:05:07.808Z,4.30
2018-01-10T05:07:35.949Z,4.30
2018-01-10T05:10:04.148Z,4.30
2018-01-10T05:12:33.019Z,4.30
2018-01-10T05:15:01.214Z,4.30
2018-01-10T05:17:29.336Z,4.30
2018-01-10T05:19:58.238Z,4.30
2018-01-10T05:22:26.350Z,4.30
2018-01-10T05:24:55.254Z,4.30
2018-01-10T05:27:23.364Z,4.20
2018-01-10T05:29:51.538Z,4.10
2018-01-10T05:32:19.648Z,4.00
2018-01-10T05:34:48.545Z,4.10
2018-01-10T05:37:17.436Z,4.10
2018-01-10T05:39:46.329Z,4.00
2018-01-10T05:42:15.219Z,4.10
2018-01-10T05:44:44.110Z,4.10
2018-01-10T05:47:12.999Z,4.20
2018-01-10T05:49:41.907Z,4.10
2018-01-10T05:52:10.024Z,4.10
2018-01-10T05:54:38.158Z,4.20
2018-01-10T05:57:06.305Z,4.20
2018-01-10T05:59:35.225Z,4.00
2018-01-10T06:02:03.340Z,4.00
2018-01-10T06:04:31.856Z,3.90
2018-01-10T06:07:00.867Z,4.00
2018-01-10T06:09:29.208Z,4.00
2018-01-10T06:11:57.340Z,4.00
2018-01-10T06:14:26.249Z,4.00
2018-01-10T06:16:55.372Z,4.10
2018-01-10T06:19:23.515Z,4.00
2018-01-10T06:21:51.655Z,4.00
2018-01-10T06:24:19.786Z,4.00
2018-01-10T06:26:49.410Z,4.30
2018-01-10T06:29:17.547Z,4.30
2018-01-10T06:31:45.661Z,4.20
2018-01-10T06:34:14.556Z,4.20
2018-01-10T06:36:43.436Z,4.20
2018-01-10T06:39:11.568Z,4.20
2018-01-10T06:41:39.684Z,4.20
2018-01-10T06:44:08.620Z,4.30
2018-01-10T06:46:36.742Z,4.30
2018-01-10T06:49:04.872Z,4.30
2018-01-10T06:51:32.999Z,4.30
2018-01-10T06:54:02.498Z,4.20
2018-01-10T06:56:30.636Z,4.20
2018-01-10T06:58:58.769Z,4.20
2018-01-10T07:01:26.923Z,4.20
2018-01-10T07:03:55.804Z,4.50
2018-01-10T07:06:23.946Z,4.50
2018-01-10T07:08:52.063Z,4.60
2018-01-10T07:11:20.968Z,4.70
2018-01-10T07:13:49.079Z,4.70
2018-01-10T07:16:17.211Z,4.80
2018-01-10T07:18:45.349Z,4.80
2018-01-10T07:21:13.515Z,4.90
2018-01-10T07:23:41.632Z,5.00
2018-01-10T07:26:09.768Z,5.00
2018-01-10T07:28:37.878Z,5.00
2018-01-10T07:31:06.067Z,5.00
2018-01-10T07:33:34.179Z,5.00
2018-01-10T07:36:02.314Z,4.90
2018-01-10T07:38:30.421Z,5.00
2018-01-10T07:40:58.557Z,5.00
2018-01-10T07:43:26.661Z,5.10
2018-01-10T07:45:54.807Z,5.10
2018-01-10T07:48:23.687Z,5.30
2018-01-10T07:50:51.823Z,5.30
2018-01-10T07:53:19.937Z,5.30
2018-01-10T07:55:48.063Z,5.20
2018-01-10T07:58:16.190Z,5.20
2018-01-10T08:00:44.327Z,5.30
2018-01-10T08:03:12.427Z,5.30
2018-01-10T08:05:40.570Z,5.30
2018-01-10T08:08:08.675Z,5.40
2018-01-10T08:10:36.821Z,5.50
2018-01-10T08:13:06.065Z,5.50
2018-01-10T08:15:35.029Z,5.50
2018-01-10T08:18:03.142Z,5.50
2018-01-10T08:20:31.282Z,5.70
2018-01-10T08:22:59.389Z,5.70
2018-01-10T08:25:28.287Z,5.80
2018-01-10T08:27:56.413Z,5.80
2018-01-10T08:30:24.547Z,5.80
2018-01-10T08:32:52.663Z,6.10
2018-01-10T08:35:20.800Z,6.20
2018-01-10T08:37:48.919Z,6.30
2018-01-10T08:40:17.064Z,6.10
2018-01-10T08:42:45.952Z,6.20
2018-01-10T08:45:14.864Z,6.20
2018-01-10T08:47:42.991Z,6.20
2018-01-10T08:50:11.114Z,6.20
2018-01-10T08:52:39.231Z,6.30
2018-01-10T08:55:07.375Z,6.40
2018-01-10T08:57:35.479Z,6.40
2018-01-10T09:00:03.610Z,6.40
2018-01-10T09:02:37.459Z,6.40
2018-01-10T09:05:05.600Z,6.40
2018-01-10T09:07:33.711Z,6.50
2018-01-10T09:10:01.988Z,6.60
2018-01-10T09:12:30.251Z,6.50
2018-01-10T09:14:58.384Z,6.60
2018-01-10T09:17:26.507Z,6.90
2018-01-10T09:19:54.642Z,7.20
2018-01-10T09:22:23.531Z,7.30
2018-01-10T09:24:51.667Z,7.30
2018-01-10T09:27:20.552Z,7.40
2018-01-10T09:29:48.683Z,7.30
2018-01-10T09:32:16.793Z,7.30
2018-01-10T09:34:44.907Z,7.30
2018-01-10T09:37:13.035Z,7.30
2018-01-10T09:39:41.152Z,7.20
2018-01-10T09:42:09.339Z,7.20
2018-01-10T09:44:37.456Z,7.30
2018-01-10T09:47:05.595Z,7.40
2018-01-10T09:49:33.711Z,7.50
2018-01-10T09:52:03.146Z,7.50
2018-01-10T09:54:31.261Z,7.50
2018-01-10T09:56:59.417Z,7.40
2018-01-10T09:59:27.535Z,7.40
2018-01-10T10:01:55.664Z,7.50
2018-01-10T10:04:23.781Z,7.70
2018-01-10T10:06:52.691Z,7.80
2018-01-10T10:09:20.812Z,7.70
2018-01-10T10:11:48.946Z,7.90
2018-01-10T10:14:17.060Z,8.10
2018-01-10T10:16:45.207Z,8.20
2018-01-10T10:19:13.332Z,8.30
2018-01-10T10:21:41.475Z,8.30
2018-01-10T10:24:09.584Z,8.20
2018-01-10T10:26:37.820Z,8.20
2018-01-10T10:29:05.930Z,8.20
2018-01-10T10:31:34.853Z,8.40
2018-01-10T10:34:03.391Z,8.40
2018-01-10T10:36:32.353Z,8.50
2018-01-10T10:39:00.460Z,8.50
2018-01-10T10:41:28.719Z,8.60
2018-01-10T10:43:56.839Z,8.60
2018-01-10T10:46:24.987Z,8.80
2018-01-10T10:48:53.100Z,9.00
2018-01-10T10:51:21.243Z,9.00
2018-01-10T10:53:50.128Z,9.30
2018-01-10T10:56:19.037Z,9.30
2018-01-10T10:58:47.168Z,9.30
2018-01-10T11:01:15.296Z,9.20
2018-01-10T11:03:43.407Z,9.30
2018-01-10T11:06:13.047Z,9.20
2018-01-10T11:08:41.919Z,9.20
2018-01-10T11:11:10.059Z,9.20
2018-01-10T11:13:38.180Z,9.20
2018-01-10T11:16:07.092Z,9.20
2018-01-10T11:18:35.210Z,9.20
2018-01-10T11:21:03.667Z,9.10
2018-01-10T11:23:31.814Z,9.00
2018-01-10T11:25:59.952Z,8.80
2018-01-10T11:28:28.143Z,8.70
2018-01-10T11:30:57.056Z,8.70
2018-01-10T11:33:25.191Z,8.70
2018-01-10T11:35:53.334Z,8.70
2018-01-10T11:38:21.443Z,8.90
2018-01-10T11:40:49.582Z,8.90
2018-01-10T11:43:17.700Z,9.00
2018-01-10T11:45:45.828Z,9.00
2018-01-10T11:48:13.951Z,8.90
2018-01-10T11:50:42.863Z,9.00
2018-01-10T11:53:10.970Z,8.90
2018-01-10T11:55:39.088Z,9.10
2018-01-10T11:58:07.992Z,9.30
2018-01-10T12:00:36.111Z,9.20
2018-01-10T12:03:04.235Z,9.10
2018-01-10T12:05:33.107Z,9.10
2018-01-10T12:08:02.574Z,9.00
2018-01-10T12:10:30.684Z,9.00
2018-01-10T12:12:58.819Z,9.00
2018-01-10T12:15:26.932Z,8.90
2018-01-10T12:17:55.834Z,8.90
2018-01-10T12:20:24.706Z,8.80
2018-01-10T12:22:53.623Z,8.90
2018-01-10T12:25:21.746Z,8.90
2018-01-10T12:27:49.880Z,8.80
2018-01-10T12:30:18.002Z,8.70
2018-01-10T12:32:46.146Z,8.90
2018-01-10T12:35:14.261Z,8.90
2018-01-10T12:37:43.842Z,9.00
2018-01-10T12:40:11.956Z,9.00
2018-01-10T12:42:40.860Z,9.10
2018-01-10T12:45:08.974Z,9.10
2018-01-10T12:47:37.106Z,9.20
2018-01-10T12:50:05.215Z,9.10
2018-01-10T12:52:33.347Z,9.00
2018-01-10T12:55:01.601Z,8.90
2018-01-10T12:57:29.814Z,8.90
2018-01-10T12:59:57.927Z,8.90
2018-01-10T13:02:26.065Z,8.90
2018-01-10T13:04:54.172Z,8.90
2018-01-10T13:07:22.314Z,8.90
2018-01-10T13:09:50.427Z,8.90
2018-01-10T13:12:18.574Z,9.00
2018-01-10T13:14:46.695Z,8.90
2018-01-10T13:17:15.604Z,8.90
2018-01-10T13:19:43.715Z,8.80
2018-01-10T13:22:11.863Z,8.80
2018-01-10T13:24:39.982Z,8.80
2018-01-10T13:27:08.107Z,8.90
2018-01-10T13:29:36.223Z,9.00
2018-01-10T13:32:04.484Z,9.10
2018-01-10T13:34:32.588Z,9.30
2018-01-10T13:37:00.728Z,9.40
2018-01-10T13:39:29.628Z,9.40
2018-01-10T13:41:57.760Z,9.40
2018-01-10T13:44:25.871Z,9.40
2018-01-10T13:46:54.012Z,9.40
2018-01-10T13:49:22.136Z,9.40
2018-01-10T13:51:50.286Z,9.40
2018-01-10T13:54:18.392Z,9.40
2018-01-10T13:56:46.551Z,9.30
2018-01-10T13:59:14.668Z,9.40
2018-01-10T14:01:42.805Z,9.30
2018-01-10T14:04:10.912Z,9.10
2018-01-10T14:06:39.055Z,9.10
2018-01-10T14:09:07.170Z,9.00
2018-01-10T14:11:35.312Z,9.00
2018-01-10T14:14:04.182Z,8.80
2018-01-10T14:16:32.314Z,8.80
2018-01-10T14:19:00.419Z,8.70
2018-01-10T14:21:28.536Z,8.60
2018-01-10T14:23:56.887Z,8.50
2018-01-10T14:26:24.999Z,8.70
2018-01-10T14:28:53.144Z,8.60
2018-01-10T14:31:22.019Z,8.20
2018-01-10T14:33:50.171Z,8.20
2018-01-10T14:36:18.279Z,8.20
2018-01-10T14:38:46.414Z,8.10
2018-01-10T14:41:14.530Z,8.10
2018-01-10T14:43:43.436Z,8.00
2018-01-10T14:46:11.543Z,7.90
2018-01-10T14:48:39.667Z,8.00
2018-01-10T14:51:08.539Z,7.70
2018-01-10T14:53:36.676Z,7.70
2018-01-10T14:56:05.567Z,7.50
2018-01-10T14:58:33.738Z,7.50
2018-01-10T15:01:01.835Z,7.50
2018-01-10T15:03:29.980Z,7.50
2018-01-10T15:05:58.076Z,7.40
2018-01-10T15:08:26.210Z,7.30
2018-01-10T15:10:54.322Z,7.30
2018-01-10T15:13:22.456Z,7.20
2018-01-10T15:15:50.562Z,7.10
2018-01-10T15:18:18.686Z,7.10
2018-01-10T15:20:47.565Z,6.90
2018-01-10T15:23:15.703Z,6.90
2018-01-10T15:25:43.819Z,6.90
2018-01-10T15:28:12.731Z,6.70
2018-01-10T15:30:40.847Z,6.70
2018-01-10T15:33:08.973Z,6.60
2018-01-10T15:35:37.079Z,6.40
2018-01-10T15:38:05.292Z,6.40
2018-01-10T15:40:33.399Z,6.30
2018-01-10T15:43:01.816Z,6.20
2018-01-10T15:45:30.063Z,6.30
2018-01-10T15:47:58.200Z,6.20
2018-01-10T15:50:26.307Z,6.00
2018-01-10T15:52:54.441Z,5.90
2018-01-10T15:55:22.566Z,5.90
2018-01-10T15:57:50.698Z,5.80
2018-01-10T16:00:19.568Z,5.70
2018-01-10T16:02:47.704Z,5.70
2018-01-10T16:05:15.813Z,5.70
2018-01-10T16:07:43.965Z,5.80
2018-01-10T16:10:12.109Z,5.80
2018-01-10T16:12:40.247Z,5.60
2018-01-10T16:15:08.360Z,5.50
2018-01-10T16:17:36.522Z,5.40
2018-01-10T16:20:04.627Z,5.40
2018-01-10T16:22:33.737Z,5.40
2018-01-10T16:25:01.897Z,5.40
2018-01-10T16:27:30.165Z,5.30
2018-01-10T16:29:58.283Z,5.20
2018-01-10T16:32:26.428Z,5.10
2018-01-10T16:34:54.549Z,5.10
2018-01-10T16:37:22.680Z,5.10
2018-01-10T16:39:50.818Z,5.00
2018-01-10T16:42:18.964Z,5.00
2018-01-10T16:44:47.899Z,5.00
2018-01-10T16:47:16.212Z,5.00
2018-01-10T16:49:44.398Z,4.90
2018-01-10T16:52:13.408Z,4.80
2018-01-10T16:54:41.582Z,4.80
2018-01-10T16:57:09.718Z,4.80
2018-01-10T16:59:37.859Z,4.80
2018-01-10T17:02:05.983Z,4.70
2018-01-10T17:04:34.884Z,4.70
2018-01-10T17:07:03.012Z,4.70
2018-01-10T17:09:31.159Z,4.60
2018-01-10T17:12:00.672Z,4.50
2018-01-10T17:14:28.809Z,4.50
2018-01-10T17:16:57.692Z,4.50
2018-01-10T17:19:26.612Z,4.60
2018-01-10T17:21:54.723Z,4.60
2018-01-10T17:24:22.874Z,4.60
2018-01-10T17:26:50.979Z,4.70
2018-01-10T17:32:21.002Z,4.70
2018-01-10T17:34:49.145Z,4.60
2018-01-10T17:37:18.035Z,4.50
2018-01-10T17:39:46.161Z,4.50
2018-01-10T17:42:14.270Z,4.40
2018-01-10T17:44:42.417Z,4.40
2018-01-10T17:47:10.547Z,4.40
2018-01-10T17:49:39.450Z,4.50
2018-01-10T17:52:08.334Z,4.50
2018-01-10T17:54:37.219Z,4.50
2018-01-10T17:57:06.098Z,4.40
2018-01-10T17:59:34.235Z,4.40
2018-01-10T18:02:02.350Z,4.40
2018-01-10T18:04:31.249Z,4.30
2018-01-10T18:07:00.127Z,4.20
2018-01-10T18:09:28.274Z,4.20
2018-01-10T18:11:57.398Z,4.10
2018-01-10T18:14:25.535Z,4.10
2018-01-10T18:16:53.657Z,4.10
2018-01-10T18:19:22.574Z,4.00
2018-01-10T18:21:50.683Z,4.00
2018-01-10T18:24:18.819Z,4.10
2018-01-10T18:26:46.916Z,4.20
2018-01-10T18:29:15.046Z,4.20
2018-01-10T18:31:43.911Z,4.20
2018-01-10T18:34:12.042Z,4.20
2018-01-10T18:36:40.174Z,4.10
2018-01-10T18:39:09.082Z,4.30
2018-01-10T18:41:37.186Z,4.20
2018-01-10T18:44:05.314Z,4.20
2018-01-10T18:46:34.185Z,4.10
2018-01-10T18:49:02.768Z,4.10
2018-01-10T18:51:30.879Z,4.20
2018-01-10T18:53:59.020Z,4.10
2018-01-10T18:56:27.127Z,4.20
2018-01-10T18:58:55.250Z,4.20
2018-01-10T19:01:23.369Z,4.00
2018-01-10T19:03:51.506Z,3.90
2018-01-10T19:06:19.615Z,3.90
2018-01-10T19:08:47.786Z,3.80
2018-01-10T19:11:15.890Z,3.80
2018-01-10T19:13:44.041Z,3.80
2018-01-10T19:16:12.158Z,3.70
2018-01-10T19:18:40.290Z,3.80
2018-01-10T19:21:08.539Z,3.60
2018-01-10T19:23:36.659Z,3.60
2018-01-10T19:26:04.911Z,3.60
2018-01-10T19:28:33.034Z,3.50
2018-01-10T19:31:01.148Z,3.50
2018-01-10T19:33:30.050Z,3.70
2018-01-10T19:35:59.343Z,3.70
2018-01-10T19:38:27.500Z,3.60
2018-01-10T19:40:55.613Z,3.60
2018-01-10T19:43:23.745Z,3.60
2018-01-10T19:45:51.875Z,3.60
2018-01-10T19:48:20.001Z,3.40
2018-01-10T19:50:48.877Z,3.40
2018-01-10T19:53:17.008Z,3.40
2018-01-10T19:55:45.117Z,3.40
2018-01-10T19:58:13.232Z,3.40
2018-01-10T20:00:41.742Z,3.40
2018-01-10T20:03:10.314Z,3.30
2018-01-10T20:05:38.488Z,3.40
2018-01-10T20:08:06.602Z,3.30
2018-01-10T20:10:34.740Z,3.30
2018-01-10T20:13:03.242Z,3.40
2018-01-10T20:15:31.380Z,3.50
2018-01-10T20:17:59.518Z,3.40
2018-01-10T20:20:27.678Z,3.30
2018-01-10T20:22:55.803Z,3.40
2018-01-10T20:25:23.964Z,3.40
2018-01-10T20:27:52.093Z,3.30
2018-01-10T20:30:20.237Z,3.30
2018-01-10T20:32:48.364Z,3.30
2018-01-10T20:35:17.264Z,3.30
2018-01-10T20:37:46.139Z,3.40
2018-01-10T20:40:14.320Z,3.30
2018-01-10T20:42:43.928Z,3.30
2018-01-10T20:45:12.184Z,3.30
2018-01-10T20:47:40.297Z,3.30
2018-01-10T20:50:08.443Z,3.10
2018-01-10T20:52:36.586Z,3.20
2018-01-10T20:55:04.726Z,3.20
2018-01-10T20:57:32.847Z,3.10
2018-01-10T21:00:00.993Z,3.00
2018-01-10T21:02:29.096Z,3.20
2018-01-10T21:04:57.243Z,3.10
2018-01-10T21:07:25.470Z,3.30
2018-01-10T21:09:53.713Z,3.30
2018-01-10T21:12:21.822Z,3.20
2018-01-10T21:14:50.724Z,3.10
2018-01-10T21:17:20.203Z,3.00
2018-01-10T21:19:49.097Z,3.10
2018-01-10T21:22:17.984Z,2.90
2018-01-10T21:24:46.118Z,2.80
2018-01-10T21:27:14.236Z,3.00
2018-01-10T21:29:43.200Z,2.90
2018-01-10T21:32:11.335Z,2.90
2018-01-10T21:34:39.495Z,3.00
2018-01-10T21:37:07.612Z,3.00
2018-01-10T21:39:35.740Z,3.10
2018-01-10T21:42:04.962Z,3.00
2018-01-10T21:44:33.895Z,3.00
2018-01-10T21:47:02.215Z,3.00
2018-01-10T21:49:30.487Z,3.00
2018-01-10T21:51:59.355Z,2.90
2018-01-10T21:54:27.522Z,2.90
2018-01-10T21:56:55.644Z,2.80
2018-01-10T21:59:24.562Z,3.10
2018-01-10T22:01:52.658Z,3.10
2018-01-10T22:04:20.786Z,2.80
2018-01-10T22:06:48.920Z,2.70
2018-01-10T22:09:17.091Z,2.80
2018-01-10T22:11:45.967Z,2.80
2018-01-10T22:14:14.100Z,2.70
2018-01-10T22:16:42.198Z,2.70
2018-01-10T22:19:10.330Z,2.60
2018-01-10T22:21:38.437Z,2.50
2018-01-10T22:24:06.598Z,2.60
2018-01-10T22:26:34.720Z,2.70
2018-01-10T22:29:03.007Z,2.70
2018-01-10T22:31:31.231Z,2.80
2018-01-10T22:33:59.353Z,2.70
2018-01-10T22:36:28.250Z,2.50
2018-01-10T22:38:57.114Z,2.40
2018-01-10T22:41:25.264Z,2.40
2018-01-10T22:43:53.378Z,2.40
2018-01-10T22:46:22.279Z,2.60
2018-01-10T22:48:51.154Z,2.60
2018-01-10T22:51:19.291Z,2.50
2018-01-10T22:53:47.399Z,2.50
2018-01-10T22:56:16.345Z,2.40
2018-01-10T22:58:45.174Z,2.50
2018-01-10T23:01:13.304Z,2.50
2018-01-10T23:03:41.412Z,2.50
2018-01-10T23:06:09.546Z,2.40
2018-01-10T23:08:37.668Z,2.40
2018-01-10T23:11:05.792Z,2.40
2018-01-10T23:13:33.910Z,2.50
2018-01-10T23:16:02.078Z,2.60
2018-01-10T23:18:30.179Z,2.60
2018-01-10T23:20:58.333Z,2.40
2018-01-10T23:23:26.466Z,2.30
2018-01-10T23:25:54.599Z,2.40
2018-01-10T23:28:23.474Z,2.50
2018-01-10T23:30:51.617Z,2.50
2018-01-10T23:33:19.731Z,2.50
2018-01-10T23:35:47.869Z,2.60
2018-01-10T23:38:15.988Z,2.60
2018-01-10T23:40:44.901Z,2.90
2018-01-10T23:43:13.055Z,2.90
2018-01-10T23:45:41.965Z,3.00
2018-01-10T23:48:10.079Z,3.00
2018-01-10T23:50:38.239Z,3.10
2018-01-10T23:53:06.373Z,3.20
2018-01-10T23:55:35.316Z,3.20
2018-01-10T23:58:03.867Z,3.20
